sensor_id;sensor_type;location;lat;lon;timestamp;pressure;altitude;pressure_sealevel;temperature;humidity
84387;BME280;74580;47.078;15.446;2023-12-28T00:01:07;97938.13;;;22.60;31.84
84387;BME280;74580;47.078;15.446;2023-12-28T00:03:32;97929.16;;;22.59;31.88
84387;BME280;74580;47.078;15.446;2023-12-28T00:05:57;97934.59;;;22.59;31.83
84387;BME280;74580;47.078;15.446;2023-12-28T00:08:23;97931.09;;;22.59;31.81
84387;BME280;74580;47.078;15.446;2023-12-28T00:10:48;97923.69;;;22.59;31.91
84387;BME280;74580;47.078;15.446;2023-12-28T00:13:13;97929.94;;;22.60;31.66
84387;BME280;74580;47.078;15.446;2023-12-28T00:15:39;97923.34;;;22.61;31.92
84387;BME280;74580;47.078;15.446;2023-12-28T00:18:04;97924.50;;;22.60;31.73
84387;BME280;74580;47.078;15.446;2023-12-28T00:20:29;97929.94;;;22.60;31.71
84387;BME280;74580;47.078;15.446;2023-12-28T00:22:55;97915.53;;;22.59;31.68
84387;BME280;74580;47.078;15.446;2023-12-28T00:25:20;97915.53;;;22.59;31.95
84387;BME280;74580;47.078;15.446;2023-12-28T00:27:45;97913.97;;;22.58;31.57
84387;BME280;74580;47.078;15.446;2023-12-28T00:30:11;97918.25;;;22.59;31.96
84387;BME280;74580;47.078;15.446;2023-12-28T00:32:37;97909.31;;;22.59;31.75
84387;BME280;74580;47.078;15.446;2023-12-28T00:35:02;97917.50;;;22.59;31.91
84387;BME280;74580;47.078;15.446;2023-12-28T00:37:29;97916.34;;;22.60;31.51
84387;BME280;74580;47.078;15.446;2023-12-28T00:39:54;97924.50;;;22.60;31.68
84387;BME280;74580;47.078;15.446;2023-12-28T00:42:20;97930.75;;;22.60;31.56
84387;BME280;74580;47.078;15.446;2023-12-28T00:44:45;97931.09;;;22.59;31.76
84387;BME280;74580;47.078;15.446;2023-12-28T00:47:11;97927.56;;;22.58;31.61
84387;BME280;74580;47.078;15.446;2023-12-28T00:49:36;97917.50;;;22.59;31.53
84387;BME280;74580;47.078;15.446;2023-12-28T00:52:02;97909.31;;;22.59;31.89
84387;BME280;74580;47.078;15.446;2023-12-28T00:54:27;97913.97;;;22.58;31.58
84387;BME280;74580;47.078;15.446;2023-12-28T00:56:52;97916.69;;;22.58;31.65
84387;BME280;74580;47.078;15.446;2023-12-28T00:59:18;97919.41;;;22.58;31.76
84387;BME280;74580;47.078;15.446;2023-12-28T01:01:43;97919.41;;;22.58;31.63
84387;BME280;74580;47.078;15.446;2023-12-28T01:04:09;97924.84;;;22.58;31.51
84387;BME280;74580;47.078;15.446;2023-12-28T01:06:34;97926.78;;;22.58;32.05
84387;BME280;74580;47.078;15.446;2023-12-28T01:09:00;97922.13;;;22.58;31.85
84387;BME280;74580;47.078;15.446;2023-12-28T01:11:25;97917.03;;;22.57;31.52
84387;BME280;74580;47.078;15.446;2023-12-28T01:13:54;97917.03;;;22.57;31.75
84387;BME280;74580;47.078;15.446;2023-12-28T01:16:19;97910.81;;;22.56;31.80
84387;BME280;74580;47.078;15.446;2023-12-28T01:18:44;97910.81;;;22.56;31.77
84387;BME280;74580;47.078;15.446;2023-12-28T01:21:10;97917.03;;;22.57;31.57
84387;BME280;74580;47.078;15.446;2023-12-28T01:23:35;97918.59;;;22.58;31.96
84387;BME280;74580;47.078;15.446;2023-12-28T01:26:01;97911.59;;;22.57;31.80
84387;BME280;74580;47.078;15.446;2023-12-28T01:28:26;97910.81;;;22.56;31.70
84387;BME280;74580;47.078;15.446;2023-12-28T01:30:52;97924.44;;;22.56;31.76
84387;BME280;74580;47.078;15.446;2023-12-28T01:33:17;97911.59;;;22.57;31.79
84387;BME280;74580;47.078;15.446;2023-12-28T01:35:43;97917.84;;;22.57;31.67
84387;BME280;74580;47.078;15.446;2023-12-28T01:38:08;97910.44;;;22.58;31.53
84387;BME280;74580;47.078;15.446;2023-12-28T01:40:33;97919.75;;;22.57;31.68
84387;BME280;74580;47.078;15.446;2023-12-28T01:42:59;97912.38;;;22.57;31.44
84387;BME280;74580;47.078;15.446;2023-12-28T01:45:24;97917.03;;;22.57;32.15
84387;BME280;74580;47.078;15.446;2023-12-28T01:47:50;97913.97;;;22.58;31.72
84387;BME280;74580;47.078;15.446;2023-12-28T01:50:18;97915.13;;;22.57;31.85
84387;BME280;74580;47.078;15.446;2023-12-28T01:52:44;97911.59;;;22.57;31.48
84387;BME280;74580;47.078;15.446;2023-12-28T01:55:10;97910.00;;;22.56;31.91
84387;BME280;74580;47.078;15.446;2023-12-28T01:57:36;97905.38;;;22.56;31.71
84387;BME280;74580;47.078;15.446;2023-12-28T02:00:02;97904.56;;;22.56;31.50
84387;BME280;74580;47.078;15.446;2023-12-28T02:02:30;97903.75;;;22.55;31.72
84387;BME280;74580;47.078;15.446;2023-12-28T02:04:56;97903.75;;;22.55;31.62
84387;BME280;74580;47.078;15.446;2023-12-28T02:07:22;97901.84;;;22.56;31.76
84387;BME280;74580;47.078;15.446;2023-12-28T02:09:49;97897.53;;;22.55;31.44
84387;BME280;74580;47.078;15.446;2023-12-28T02:12:14;97907.28;;;22.56;31.56
84387;BME280;74580;47.078;15.446;2023-12-28T02:14:40;97896.41;;;22.56;31.62
84387;BME280;74580;47.078;15.446;2023-12-28T02:17:21;97888.56;;;22.54;31.71
84387;BME280;74580;47.078;15.446;2023-12-28T02:19:53;97876.88;;;22.54;31.81
84387;BME280;74580;47.078;15.446;2023-12-28T02:22:20;97867.59;;;22.55;31.70
84387;BME280;74580;47.078;15.446;2023-12-28T02:27:20;97870.31;;;22.55;31.83
84387;BME280;74580;47.078;15.446;2023-12-28T02:29:46;97871.09;;;22.55;31.59
84387;BME280;74580;47.078;15.446;2023-12-28T02:32:11;97862.16;;;22.55;31.72
84387;BME280;74580;47.078;15.446;2023-12-28T02:34:40;97855.56;;;22.56;31.53
84387;BME280;74580;47.078;15.446;2023-12-28T02:37:08;97861.00;;;22.56;31.48
84387;BME280;74580;47.078;15.446;2023-12-28T02:39:36;97850.47;;;22.54;31.74
84387;BME280;74580;47.078;15.446;2023-12-28T02:42:04;97849.31;;;22.55;31.33
84387;BME280;74580;47.078;15.446;2023-12-28T02:44:29;97852.38;;;22.54;31.66
84387;BME280;74580;47.078;15.446;2023-12-28T02:46:54;97852.81;;;22.56;31.46
84387;BME280;74580;47.078;15.446;2023-12-28T02:49:20;97852.38;;;22.54;31.51
84387;BME280;74580;47.078;15.446;2023-12-28T02:51:46;97847.72;;;22.54;31.54
84387;BME280;74580;47.078;15.446;2023-12-28T02:54:12;97850.47;;;22.54;31.54
84387;BME280;74580;47.078;15.446;2023-12-28T02:56:39;97837.19;;;22.53;31.52
84387;BME280;74580;47.078;15.446;2023-12-28T02:59:05;97840.72;;;22.53;31.41
84387;BME280;74580;47.078;15.446;2023-12-28T03:01:30;97833.31;;;22.54;31.61
84387;BME280;74580;47.078;15.446;2023-12-28T03:03:55;97833.31;;;22.54;31.78
84387;BME280;74580;47.078;15.446;2023-12-28T03:06:21;97826.75;;;22.55;31.14
84387;BME280;74580;47.078;15.446;2023-12-28T03:08:46;97830.59;;;22.54;31.57
84387;BME280;74580;47.078;15.446;2023-12-28T03:11:11;97830.59;;;22.54;31.39
84387;BME280;74580;47.078;15.446;2023-12-28T03:13:37;97824.38;;;22.53;31.53
84387;BME280;74580;47.078;15.446;2023-12-28T03:16:02;97824.38;;;22.53;31.40
84387;BME280;74580;47.078;15.446;2023-12-28T03:18:28;97812.69;;;22.53;31.62
84387;BME280;74580;47.078;15.446;2023-12-28T03:20:53;97815.06;;;22.54;31.60
84387;BME280;74580;47.078;15.446;2023-12-28T03:23:18;97816.56;;;22.52;31.86
84387;BME280;74580;47.078;15.446;2023-12-28T03:25:44;97801.78;;;22.53;31.64
84387;BME280;74580;47.078;15.446;2023-12-28T03:28:09;97804.50;;;22.53;31.55
84387;BME280;74580;47.078;15.446;2023-12-28T03:30:34;97805.31;;;22.53;31.49
84387;BME280;74580;47.078;15.446;2023-12-28T03:33:00;97796.34;;;22.53;31.60
84387;BME280;74580;47.078;15.446;2023-12-28T03:35:25;97793.63;;;22.53;31.52
84387;BME280;74580;47.078;15.446;2023-12-28T03:37:51;97790.91;;;22.53;31.53
84387;BME280;74580;47.078;15.446;2023-12-28T03:40:16;97782.72;;;22.53;31.55
84387;BME280;74580;47.078;15.446;2023-12-28T03:42:41;97774.56;;;22.53;31.40
84387;BME280;74580;47.078;15.446;2023-12-28T03:45:07;97774.56;;;22.53;31.64
84387;BME280;74580;47.078;15.446;2023-12-28T03:47:32;97774.56;;;22.53;31.39
84387;BME280;74580;47.078;15.446;2023-12-28T03:49:58;97771.84;;;22.53;31.43
84387;BME280;74580;47.078;15.446;2023-12-28T03:52:28;97773.41;;;22.54;31.65
84387;BME280;74580;47.078;15.446;2023-12-28T03:54:55;97772.66;;;22.53;31.44
84387;BME280;74580;47.078;15.446;2023-12-28T03:57:20;97774.56;;;22.53;31.35
84387;BME280;74580;47.078;15.446;2023-12-28T03:59:46;97778.09;;;22.53;31.32
84387;BME280;74580;47.078;15.446;2023-12-28T04:02:12;97770.69;;;22.54;31.41
84387;BME280;74580;47.078;15.446;2023-12-28T04:04:38;97771.06;;;22.52;31.62
84387;BME280;74580;47.078;15.446;2023-12-28T04:07:04;97774.56;;;22.53;31.42
84387;BME280;74580;47.078;15.446;2023-12-28T04:09:32;97767.53;;;22.52;31.55
84387;BME280;74580;47.078;15.446;2023-12-28T04:11:57;97760.94;;;22.53;31.45
84387;BME280;74580;47.078;15.446;2023-12-28T04:14:23;97762.91;;;22.52;31.20
84387;BME280;74580;47.078;15.446;2023-12-28T04:16:48;97760.94;;;22.53;31.28
84387;BME280;74580;47.078;15.446;2023-12-28T04:19:13;97752.78;;;22.53;31.07
84387;BME280;74580;47.078;15.446;2023-12-28T04:21:42;97760.94;;;22.53;31.55
84387;BME280;74580;47.078;15.446;2023-12-28T04:24:08;97752.78;;;22.53;31.22
84387;BME280;74580;47.078;15.446;2023-12-28T04:26:33;97755.84;;;22.51;31.46
84387;BME280;74580;47.078;15.446;2023-12-28T04:28:59;97747.34;;;22.53;31.41
84387;BME280;74580;47.078;15.446;2023-12-28T04:31:24;97749.28;;;22.52;31.40
84387;BME280;74580;47.078;15.446;2023-12-28T04:33:49;97753.13;;;22.51;31.54
84387;BME280;74580;47.078;15.446;2023-12-28T04:36:15;97758.22;;;22.53;31.46
84387;BME280;74580;47.078;15.446;2023-12-28T04:38:40;97755.84;;;22.51;31.41
84387;BME280;74580;47.078;15.446;2023-12-28T04:41:06;97762.09;;;22.52;31.47
84387;BME280;74580;47.078;15.446;2023-12-28T04:43:31;97761.31;;;22.51;31.47
84387;BME280;74580;47.078;15.446;2023-12-28T04:45:57;97756.66;;;22.52;31.27
84387;BME280;74580;47.078;15.446;2023-12-28T04:48:22;97762.09;;;22.52;31.13
84387;BME280;74580;47.078;15.446;2023-12-28T04:50:50;97776.53;;;22.52;31.43
84387;BME280;74580;47.078;15.446;2023-12-28T04:53:17;97768.34;;;22.52;31.85
84387;BME280;74580;47.078;15.446;2023-12-28T04:55:43;97761.31;;;22.51;31.36
84387;BME280;74580;47.078;15.446;2023-12-28T04:58:10;97767.53;;;22.52;31.10
84387;BME280;74580;47.078;15.446;2023-12-28T05:00:36;97764.81;;;22.52;31.40
84387;BME280;74580;47.078;15.446;2023-12-28T05:03:01;97767.53;;;22.52;31.31
84387;BME280;74580;47.078;15.446;2023-12-28T05:05:26;97762.47;;;22.50;31.38
84387;BME280;74580;47.078;15.446;2023-12-28T05:07:52;97769.47;;;22.51;31.56
84387;BME280;74580;47.078;15.446;2023-12-28T05:10:17;97760.53;;;22.51;31.46
84387;BME280;74580;47.078;15.446;2023-12-28T05:12:42;97770.63;;;22.50;31.03
84387;BME280;74580;47.078;15.446;2023-12-28T05:15:08;97767.91;;;22.50;31.47
84387;BME280;74580;47.078;15.446;2023-12-28T05:17:33;97775.28;;;22.50;31.53
84387;BME280;74580;47.078;15.446;2023-12-28T05:19:59;97781.50;;;22.50;31.32
84387;BME280;74580;47.078;15.446;2023-12-28T05:22:24;97784.22;;;22.50;31.75
84387;BME280;74580;47.078;15.446;2023-12-28T05:24:49;97779.13;;;22.49;31.34
84387;BME280;74580;47.078;15.446;2023-12-28T05:27:15;97783.81;;;22.48;31.37
84387;BME280;74580;47.078;15.446;2023-12-28T05:29:41;97776.78;;;22.47;31.30
84387;BME280;74580;47.078;15.446;2023-12-28T05:32:06;97772.94;;;22.48;31.46
84387;BME280;74580;47.078;15.446;2023-12-28T05:34:31;97772.94;;;22.48;31.48
84387;BME280;74580;47.078;15.446;2023-12-28T05:36:57;97766.69;;;22.48;31.28
84387;BME280;74580;47.078;15.446;2023-12-28T05:39:22;97772.13;;;22.48;31.36
84387;BME280;74580;47.078;15.446;2023-12-28T05:41:47;97765.53;;;22.49;31.32
84387;BME280;74580;47.078;15.446;2023-12-28T05:44:15;97776.41;;;22.49;31.34
84387;BME280;74580;47.078;15.446;2023-12-28T05:46:40;97769.41;;;22.48;30.97
84387;BME280;74580;47.078;15.446;2023-12-28T05:49:06;97777.56;;;22.48;31.32
84387;BME280;74580;47.078;15.446;2023-12-28T05:51:40;97770.56;;;22.47;31.30
84387;BME280;74580;47.078;15.446;2023-12-28T05:54:06;97777.91;;;22.46;31.36
84387;BME280;74580;47.078;15.446;2023-12-28T05:56:32;97775.19;;;22.46;31.18
84387;BME280;74580;47.078;15.446;2023-12-28T05:58:57;97775.53;;;22.45;31.29
84387;BME280;74580;47.078;15.446;2023-12-28T06:01:22;97775.19;;;22.46;31.13
84387;BME280;74580;47.078;15.446;2023-12-28T06:03:48;97777.91;;;22.46;31.26
84387;BME280;74580;47.078;15.446;2023-12-28T06:06:15;97776.00;;;22.47;31.10
84387;BME280;74580;47.078;15.446;2023-12-28T06:08:40;97768.91;;;22.46;30.93
84387;BME280;74580;47.078;15.446;2023-12-28T06:11:06;97776.31;;;22.45;31.37
84387;BME280;74580;47.078;15.446;2023-12-28T06:13:31;97780.28;;;22.48;31.32
84387;BME280;74580;47.078;15.446;2023-12-28T06:15:57;97770.56;;;22.47;31.23
84387;BME280;74580;47.078;15.446;2023-12-28T06:18:22;97767.84;;;22.47;31.44
84387;BME280;74580;47.078;15.446;2023-12-28T06:20:47;97762.38;;;22.47;31.44
84387;BME280;74580;47.078;15.446;2023-12-28T06:23:13;97770.06;;;22.45;31.31
84387;BME280;74580;47.078;15.446;2023-12-28T06:25:38;97773.28;;;22.47;31.28
84387;BME280;74580;47.078;15.446;2023-12-28T06:28:03;97770.06;;;22.45;31.33
84387;BME280;74580;47.078;15.446;2023-12-28T06:30:29;97773.59;;;22.45;31.41
84387;BME280;74580;47.078;15.446;2023-12-28T06:32:54;97781.44;;;22.47;31.42
84387;BME280;74580;47.078;15.446;2023-12-28T06:35:20;97779.81;;;22.46;31.19
84387;BME280;74580;47.078;15.446;2023-12-28T06:37:45;97791.19;;;22.48;30.98
84387;BME280;74580;47.078;15.446;2023-12-28T06:40:11;97801.59;;;22.46;31.23
84387;BME280;74580;47.078;15.446;2023-12-28T06:42:36;97802.44;;;22.46;31.35
84387;BME280;74580;47.078;15.446;2023-12-28T06:45:02;97802.44;;;22.46;31.31
84387;BME280;74580;47.078;15.446;2023-12-28T06:47:27;97792.34;;;22.47;31.23
84387;BME280;74580;47.078;15.446;2023-12-28T06:49:53;97791.09;;;22.44;31.28
84387;BME280;74580;47.078;15.446;2023-12-28T06:52:18;97786.09;;;22.46;31.49
84387;BME280;74580;47.078;15.446;2023-12-28T06:54:43;97793.81;;;22.44;31.19
84387;BME280;74580;47.078;15.446;2023-12-28T06:57:09;97798.44;;;22.44;31.20
84387;BME280;74580;47.078;15.446;2023-12-28T06:59:34;97803.91;;;22.44;31.31
84387;BME280;74580;47.078;15.446;2023-12-28T07:02:00;97807.41;;;22.44;31.24
84387;BME280;74580;47.078;15.446;2023-12-28T07:04:25;97795.72;;;22.44;31.25
84387;BME280;74580;47.078;15.446;2023-12-28T07:06:54;97798.44;;;22.44;31.20
84387;BME280;74580;47.078;15.446;2023-12-28T07:09:20;97801.16;;;22.44;31.30
84387;BME280;74580;47.078;15.446;2023-12-28T07:11:45;97796.88;;;22.43;31.11
84387;BME280;74580;47.078;15.446;2023-12-28T07:14:10;97801.53;;;22.42;31.39
84387;BME280;74580;47.078;15.446;2023-12-28T07:16:36;97808.19;;;22.45;31.00
84387;BME280;74580;47.078;15.446;2023-12-28T07:19:01;97807.41;;;22.44;31.30
84387;BME280;74580;47.078;15.446;2023-12-28T07:21:26;97804.69;;;22.44;31.35
84387;BME280;74580;47.078;15.446;2023-12-28T07:23:52;97807.78;;;22.43;31.22
84387;BME280;74580;47.078;15.446;2023-12-28T07:26:17;97802.31;;;22.43;31.00
84387;BME280;74580;47.078;15.446;2023-12-28T07:28:42;97805.03;;;22.43;31.39
84387;BME280;74580;47.078;15.446;2023-12-28T07:31:10;97810.50;;;22.43;31.29
84387;BME280;74580;47.078;15.446;2023-12-28T07:33:35;97820.22;;;22.44;31.30
84387;BME280;74580;47.078;15.446;2023-12-28T07:36:01;97812.41;;;22.42;31.19
84387;BME280;74580;47.078;15.446;2023-12-28T07:38:28;97813.22;;;22.43;31.15
84387;BME280;74580;47.078;15.446;2023-12-28T07:40:53;97810.13;;;22.44;30.82
84387;BME280;74580;47.078;15.446;2023-12-28T07:43:18;97808.53;;;22.43;31.10
84387;BME280;74580;47.078;15.446;2023-12-28T07:45:44;97805.81;;;22.43;30.97
84387;BME280;74580;47.078;15.446;2023-12-28T07:48:09;97812.06;;;22.44;31.19
84387;BME280;74580;47.078;15.446;2023-12-28T07:50:35;97810.91;;;22.45;30.68
84387;BME280;74580;47.078;15.446;2023-12-28T07:53:00;97814.78;;;22.44;31.15
84387;BME280;74580;47.078;15.446;2023-12-28T07:55:25;97813.97;;;22.43;31.06
84387;BME280;74580;47.078;15.446;2023-12-28T07:57:52;97816.34;;;22.45;31.15
84387;BME280;74580;47.078;15.446;2023-12-28T08:00:17;97819.06;;;22.45;31.05
84387;BME280;74580;47.078;15.446;2023-12-28T08:02:42;97813.97;;;22.43;31.16
84387;BME280;74580;47.078;15.446;2023-12-28T08:05:08;97817.50;;;22.44;31.04
84387;BME280;74580;47.078;15.446;2023-12-28T08:07:34;97816.72;;;22.43;31.04
84387;BME280;74580;47.078;15.446;2023-12-28T08:10:00;97815.59;;;22.44;31.09
84387;BME280;74580;47.078;15.446;2023-12-28T08:12:25;97819.44;;;22.43;31.14
84387;BME280;74580;47.078;15.446;2023-12-28T08:14:53;97825.69;;;22.44;31.27
84387;BME280;74580;47.078;15.446;2023-12-28T08:17:19;97826.47;;;22.44;31.28
84387;BME280;74580;47.078;15.446;2023-12-28T08:19:44;97832.69;;;22.45;31.14
84387;BME280;74580;47.078;15.446;2023-12-28T08:22:09;97831.13;;;22.44;31.50
84387;BME280;74580;47.078;15.446;2023-12-28T08:24:35;97827.25;;;22.45;30.88
84387;BME280;74580;47.078;15.446;2023-12-28T08:27:01;97825.00;;;22.47;31.15
84387;BME280;74580;47.078;15.446;2023-12-28T08:29:28;97820.66;;;22.46;31.21
84387;BME280;74580;47.078;15.446;2023-12-28T08:31:53;97825.31;;;22.45;31.07
84387;BME280;74580;47.078;15.446;2023-12-28T08:34:19;97831.53;;;22.46;31.31
84387;BME280;74580;47.078;15.446;2023-12-28T08:36:44;97836.22;;;22.45;31.17
84387;BME280;74580;47.078;15.446;2023-12-28T08:39:09;97828.50;;;22.47;30.91
84387;BME280;74580;47.078;15.446;2023-12-28T08:41:35;97833.94;;;22.47;31.16
84387;BME280;74580;47.078;15.446;2023-12-28T08:44:00;97834.25;;;22.46;31.21
84387;BME280;74580;47.078;15.446;2023-12-28T08:46:26;97829.97;;;22.45;31.26
84387;BME280;74580;47.078;15.446;2023-12-28T08:48:51;97831.53;;;22.46;31.42
84387;BME280;74580;47.078;15.446;2023-12-28T08:51:17;97838.13;;;22.45;31.08
84387;BME280;74580;47.078;15.446;2023-12-28T08:53:42;97841.34;;;22.47;31.04
84387;BME280;74580;47.078;15.446;2023-12-28T08:56:16;97842.44;;;22.46;31.20
84387;BME280;74580;47.078;15.446;2023-12-28T08:58:42;97846.31;;;22.45;31.10
84387;BME280;74580;47.078;15.446;2023-12-28T09:01:07;97853.31;;;22.46;30.88
84387;BME280;74580;47.078;15.446;2023-12-28T09:03:32;97855.28;;;22.45;31.12
84387;BME280;74580;47.078;15.446;2023-12-28T09:05:58;97864.59;;;22.44;31.26
84387;BME280;74580;47.078;15.446;2023-12-28T09:08:23;97861.88;;;22.44;31.25
84387;BME280;74580;47.078;15.446;2023-12-28T09:10:48;97860.25;;;22.43;31.40
84387;BME280;74580;47.078;15.446;2023-12-28T09:13:17;97861.06;;;22.44;30.89
84387;BME280;74580;47.078;15.446;2023-12-28T09:15:43;97862.63;;;22.45;31.18
84387;BME280;74580;47.078;15.446;2023-12-28T09:18:08;97866.16;;;22.45;31.04
84387;BME280;74580;47.078;15.446;2023-12-28T09:20:33;97866.50;;;22.44;31.17
84387;BME280;74580;47.078;15.446;2023-12-28T09:23:00;97859.16;;;22.44;31.09
84387;BME280;74580;47.078;15.446;2023-12-28T09:25:26;97866.94;;;22.46;31.08
84387;BME280;74580;47.078;15.446;2023-12-28T09:27:51;97861.50;;;22.46;30.93
84387;BME280;74580;47.078;15.446;2023-12-28T09:30:17;97867.78;;;22.46;30.94
84387;BME280;74580;47.078;15.446;2023-12-28T09:32:42;97858.34;;;22.44;31.29
84387;BME280;74580;47.078;15.446;2023-12-28T09:35:08;97862.31;;;22.46;30.95
84387;BME280;74580;47.078;15.446;2023-12-28T09:37:33;97853.31;;;22.46;31.06
84387;BME280;74580;47.078;15.446;2023-12-28T09:39:59;97846.00;;;22.46;31.12
84387;BME280;74580;47.078;15.446;2023-12-28T09:42:26;97839.72;;;22.46;31.00
84387;BME280;74580;47.078;15.446;2023-12-28T09:44:54;97841.34;;;22.47;31.13
84387;BME280;74580;47.078;15.446;2023-12-28T09:47:20;97841.34;;;22.47;31.14
84387;BME280;74580;47.078;15.446;2023-12-28T09:49:47;97834.75;;;22.48;31.13
84387;BME280;74580;47.078;15.446;2023-12-28T09:52:12;97840.53;;;22.46;31.14
84387;BME280;74580;47.078;15.446;2023-12-28T09:54:37;97833.19;;;22.47;31.07
84387;BME280;74580;47.078;15.446;2023-12-28T09:57:03;97835.56;;;22.48;30.93
84387;BME280;74580;47.078;15.446;2023-12-28T09:59:31;97837.47;;;22.48;31.09
84387;BME280;74580;47.078;15.446;2023-12-28T10:01:58;97840.19;;;22.48;31.33
84387;BME280;74580;47.078;15.446;2023-12-28T10:04:26;97837.47;;;22.48;31.25
84387;BME280;74580;47.078;15.446;2023-12-28T10:06:53;97841.00;;;22.48;31.18
84387;BME280;74580;47.078;15.446;2023-12-28T10:09:19;97833.59;;;22.49;31.17
84387;BME280;74580;47.078;15.446;2023-12-28T10:11:44;97833.59;;;22.49;31.05
84387;BME280;74580;47.078;15.446;2023-12-28T10:14:09;97829.72;;;22.50;31.20
84387;BME280;74580;47.078;15.446;2023-12-28T10:16:35;97825.06;;;22.50;31.05
84387;BME280;74580;47.078;15.446;2023-12-28T10:22:23;97837.88;;;22.50;31.11
84387;BME280;74580;47.078;15.446;2023-12-28T10:24:48;97825.06;;;22.50;31.18
84387;BME280;74580;47.078;15.446;2023-12-28T10:27:14;97817.25;;;22.49;31.12
84387;BME280;74580;47.078;15.446;2023-12-28T10:29:39;97818.81;;;22.50;31.44
84387;BME280;74580;47.078;15.446;2023-12-28T10:32:05;97804.09;;;22.51;30.96
84387;BME280;74580;47.078;15.446;2023-12-28T10:34:30;97806.47;;;22.52;31.20
84387;BME280;74580;47.078;15.446;2023-12-28T10:36:56;97808.38;;;22.52;31.21
84387;BME280;74580;47.078;15.446;2023-12-28T10:39:24;97803.00;;;22.55;31.57
84387;BME280;74580;47.078;15.446;2023-12-28T10:41:51;97811.28;;;22.59;30.97
84387;BME280;74580;47.078;15.446;2023-12-28T10:44:22;97807.41;;;22.60;31.21
84387;BME280;74580;47.078;15.446;2023-12-28T10:46:50;97803.13;;;22.59;30.98
84387;BME280;74580;47.078;15.446;2023-12-28T10:49:20;97800.38;;;22.59;31.15
84387;BME280;74580;47.078;15.446;2023-12-28T10:51:50;97794.22;;;22.62;30.83
84387;BME280;74580;47.078;15.446;2023-12-28T10:54:44;97797.38;;;22.64;30.92
84387;BME280;74580;47.078;15.446;2023-12-28T10:57:29;97800.91;;;22.64;31.01
84387;BME280;74580;47.078;15.446;2023-12-28T11:00:14;97791.94;;;22.64;30.94
84387;BME280;74580;47.078;15.446;2023-12-28T11:02:45;97796.59;;;22.63;31.11
84387;BME280;74580;47.078;15.446;2023-12-28T11:05:15;97794.22;;;22.62;30.74
84387;BME280;74580;47.078;15.446;2023-12-28T11:07:43;97784.13;;;22.62;31.10
84387;BME280;74580;47.078;15.446;2023-12-28T11:10:08;97791.50;;;22.62;30.99
84387;BME280;74580;47.078;15.446;2023-12-28T11:12:35;97796.50;;;22.60;31.18
84387;BME280;74580;47.078;15.446;2023-12-28T11:15:02;97785.97;;;22.58;30.96
84387;BME280;74580;47.078;15.446;2023-12-28T11:17:30;97782.44;;;22.58;31.16
84387;BME280;74580;47.078;15.446;2023-12-28T11:19:56;97778.97;;;22.57;30.79
84387;BME280;74580;47.078;15.446;2023-12-28T11:22:22;97776.22;;;22.57;31.15
84387;BME280;74580;47.078;15.446;2023-12-28T11:24:48;97774.66;;;22.56;31.18
84387;BME280;74580;47.078;15.446;2023-12-28T11:27:14;97777.72;;;22.55;31.23
84387;BME280;74580;47.078;15.446;2023-12-28T11:29:41;97780.47;;;22.55;31.24
84387;BME280;74580;47.078;15.446;2023-12-28T11:32:08;97780.47;;;22.55;31.42
84387;BME280;74580;47.078;15.446;2023-12-28T11:34:33;97775.00;;;22.55;31.44
84387;BME280;74580;47.078;15.446;2023-12-28T11:37:13;97773.06;;;22.55;31.09
84387;BME280;74580;47.078;15.446;2023-12-28T11:39:43;97776.94;;;22.54;31.29
84387;BME280;74580;47.078;15.446;2023-12-28T11:42:10;97772.66;;;22.53;31.15
84387;BME280;74580;47.078;15.446;2023-12-28T11:44:43;97772.28;;;22.55;31.28
84387;BME280;74580;47.078;15.446;2023-12-28T11:47:22;97773.41;;;22.54;31.21
84387;BME280;74580;47.078;15.446;2023-12-28T11:49:48;97772.66;;;22.53;31.14
84387;BME280;74580;47.078;15.446;2023-12-28T11:52:42;97750.06;;;22.53;31.09
84387;BME280;74580;47.078;15.446;2023-12-28T11:55:08;97755.50;;;22.53;31.30
84387;BME280;74580;47.078;15.446;2023-12-28T11:57:36;97743.84;;;22.52;31.17
84387;BME280;74580;47.078;15.446;2023-12-28T12:00:02;97746.19;;;22.54;31.12
84387;BME280;74580;47.078;15.446;2023-12-28T12:02:29;97750.84;;;22.53;30.94
84387;BME280;74580;47.078;15.446;2023-12-28T12:04:55;97747.34;;;22.53;31.20
84387;BME280;74580;47.078;15.446;2023-12-28T12:07:23;97743.03;;;22.52;31.19
84387;BME280;74580;47.078;15.446;2023-12-28T12:09:55;97747.34;;;22.53;31.18
84387;BME280;74580;47.078;15.446;2023-12-28T12:12:20;97753.94;;;22.52;31.38
84387;BME280;74580;47.078;15.446;2023-12-28T12:14:45;97753.94;;;22.52;31.05
84387;BME280;74580;47.078;15.446;2023-12-28T12:17:11;97755.09;;;22.51;31.34
84387;BME280;74580;47.078;15.446;2023-12-28T12:19:37;97744.97;;;22.51;31.38
84387;BME280;74580;47.078;15.446;2023-12-28T12:22:02;97750.41;;;22.51;31.11
84387;BME280;74580;47.078;15.446;2023-12-28T12:24:28;97756.66;;;22.52;31.29
84387;BME280;74580;47.078;15.446;2023-12-28T12:26:53;97762.09;;;22.52;31.05
84387;BME280;74580;47.078;15.446;2023-12-28T12:29:19;97761.31;;;22.51;31.25
84387;BME280;74580;47.078;15.446;2023-12-28T12:31:47;97760.53;;;22.51;31.22
84387;BME280;74580;47.078;15.446;2023-12-28T12:34:15;97751.22;;;22.52;31.03
84387;BME280;74580;47.078;15.446;2023-12-28T12:36:41;97743.41;;;22.50;31.31
84387;BME280;74580;47.078;15.446;2023-12-28T12:39:09;97749.63;;;22.51;31.37
84387;BME280;74580;47.078;15.446;2023-12-28T12:41:36;97742.59;;;22.50;31.25
84387;BME280;74580;47.078;15.446;2023-12-28T12:44:03;97744.19;;;22.51;31.14
84387;BME280;74580;47.078;15.446;2023-12-28T12:46:30;97752.38;;;22.51;31.32
84387;BME280;74580;47.078;15.446;2023-12-28T12:48:59;97752.38;;;22.51;31.32
84387;BME280;74580;47.078;15.446;2023-12-28T12:51:26;97761.31;;;22.51;31.42